sensor_id;sensor_type;location;lat;lon;timestamp;pressure;altitude;pressure_sealevel;temperature;humidity
8160;BME280;27404;52.398;9.646;2022-12-18T00:01:23;102233.50;;;-8.40;100.00
8160;BME280;27404;52.398;9.646;2022-12-18T00:03:49;102229.59;;;-8.14;100.00
8160;BME280;27404;52.398;9.646;2022-12-18T00:06:16;102228.06;;;-8.00;100.00
8160;BME280;27404;52.398;9.646;2022-12-18T00:08:42;102221.53;;;-7.93;100.00
8160;BME280;27404;52.398;9.646;2022-12-18T00:11:11;102234.97;;;-7.79;100.00
8160;BME280;27404;52.398;9.646;2022-12-18T00:13:37;102242.78;;;-7.76;100.00
8160;BME280;27404;52.398;9.646;2022-12-18T00:16:07;102245.75;;;-7.82;100.00
8160;BME280;27404;52.398;9.646;2022-12-18T00:18:34;102259.22;;;-7.67;100.00
8160;BME280;27404;52.398;9.646;2022-12-18T00:21:06;102259.66;;;-7.59;100.00
8160;BME280;27404;52.398;9.646;2022-12-18T00:23:33;102259.28;;;-7.69;100.00
8160;BME280;27404;52.398;9.646;2022-12-18T00:26:05;102251.56;;;-7.93;100.00
8160;BME280;27404;52.398;9.646;2022-12-18T00:28:31;102246.16;;;-8.09;100.00
8160;BME280;27404;52.398;9.646;2022-12-18T00:31:01;102245.81;;;-8.01;100.00
8160;BME280;27404;52.398;9.646;2022-12-18T00:33:28;102252.19;;;-8.05;100.00
8160;BME280;27404;52.398;9.646;2022-12-18T00:35:53;102248.16;;;-7.95;100.00
8160;BME280;27404;52.398;9.646;2022-12-18T00:38:18;102261.03;;;-7.87;100.00
8160;BME280;27404;52.398;9.646;2022-12-18T00:40:44;102253.03;;;-8.05;100.00
8160;BME280;27404;52.398;9.646;2022-12-18T00:43:09;102254.25;;;-8.12;100.00
8160;BME280;27404;52.398;9.646;2022-12-18T00:45:35;102256.50;;;-8.22;100.00
8160;BME280;27404;52.398;9.646;2022-12-18T00:48:00;102265.31;;;-8.21;100.00
8160;BME280;27404;52.398;9.646;2022-12-18T00:50:26;102265.31;;;-8.02;100.00
8160;BME280;27404;52.398;9.646;2022-12-18T00:52:51;102262.00;;;-8.07;100.00
8160;BME280;27404;52.398;9.646;2022-12-18T00:55:17;102264.69;;;-7.90;100.00
8160;BME280;27404;52.398;9.646;2022-12-18T00:57:43;102271.31;;;-7.98;100.00
8160;BME280;27404;52.398;9.646;2022-12-18T01:00:12;102257.66;;;-7.91;100.00
8160;BME280;27404;52.398;9.646;2022-12-18T01:02:38;102261.53;;;-7.79;100.00
8160;BME280;27404;52.398;9.646;2022-12-18T01:05:04;102256.81;;;-7.91;100.00
8160;BME280;27404;52.398;9.646;2022-12-18T01:07:30;102256.13;;;-7.95;100.00
8160;BME280;27404;52.398;9.646;2022-12-18T01:09:55;102255.84;;;-8.08;100.00
8160;BME280;27404;52.398;9.646;2022-12-18T01:12:21;102258.78;;;-8.14;100.00
8160;BME280;27404;52.398;9.646;2022-12-18T01:14:46;102260.84;;;-8.01;100.00
8160;BME280;27404;52.398;9.646;2022-12-18T01:17:12;102256.19;;;-7.96;100.00
8160;BME280;27404;52.398;9.646;2022-12-18T01:19:37;102250.63;;;-8.09;100.00
8160;BME280;27404;52.398;9.646;2022-12-18T01:22:02;102257.94;;;-8.14;100.00
8160;BME280;27404;52.398;9.646;2022-12-18T01:24:28;102255.47;;;-8.19;100.00
8160;BME280;27404;52.398;9.646;2022-12-18T01:26:53;102263.47;;;-7.82;100.00
8160;BME280;27404;52.398;9.646;2022-12-18T01:29:19;102251.38;;;-7.53;100.00
8160;BME280;27404;52.398;9.646;2022-12-18T01:31:44;102253.69;;;-7.45;100.00
8160;BME280;27404;52.398;9.646;2022-12-18T01:34:10;102254.16;;;-7.37;100.00
8160;BME280;27404;52.398;9.646;2022-12-18T01:36:37;102259.69;;;-7.41;100.00
8160;BME280;27404;52.398;9.646;2022-12-18T01:39:14;102263.72;;;-7.52;100.00
8160;BME280;27404;52.398;9.646;2022-12-18T01:41:40;102269.34;;;-7.76;100.00
8160;BME280;27404;52.398;9.646;2022-12-18T01:44:57;102261.84;;;-7.50;100.00
8160;BME280;27404;52.398;9.646;2022-12-18T01:52:48;102267.25;;;-7.51;100.00
8160;BME280;27404;52.398;9.646;2022-12-18T01:55:18;102269.81;;;-7.50;100.00
8160;BME280;27404;52.398;9.646;2022-12-18T01:57:44;102264.50;;;-7.50;100.00
8160;BME280;27404;52.398;9.646;2022-12-18T02:00:15;102282.25;;;-7.50;100.00
8160;BME280;27404;52.398;9.646;2022-12-18T02:02:43;102285.22;;;-7.56;100.00
8160;BME280;27404;52.398;9.646;2022-12-18T02:05:10;102279.97;;;-7.58;100.00
8160;BME280;27404;52.398;9.646;2022-12-18T02:10:48;102290.97;;;-7.66;100.00
8160;BME280;27404;52.398;9.646;2022-12-18T02:16:39;102292.66;;;-7.63;100.00
8160;BME280;27404;52.398;9.646;2022-12-18T02:19:27;102285.03;;;-7.71;100.00
8160;BME280;27404;52.398;9.646;2022-12-18T02:25:03;102277.31;;;-7.76;100.00
8160;BME280;27404;52.398;9.646;2022-12-18T02:27:30;102279.81;;;-7.55;100.00
8160;BME280;27404;52.398;9.646;2022-12-18T02:29:59;102278.38;;;-7.43;100.00
8160;BME280;27404;52.398;9.646;2022-12-18T02:32:30;102280.47;;;-7.32;100.00
8160;BME280;27404;52.398;9.646;2022-12-18T02:34:57;102277.78;;;-7.50;100.00
8160;BME280;27404;52.398;9.646;2022-12-18T02:37:25;102273.13;;;-7.62;100.00
8160;BME280;27404;52.398;9.646;2022-12-18T02:39:55;102271.59;;;-7.68;100.00
8160;BME280;27404;52.398;9.646;2022-12-18T02:42:22;102269.03;;;-7.69;100.00
8160;BME280;27404;52.398;9.646;2022-12-18T02:44:50;102263.19;;;-7.59;100.00
8160;BME280;27404;52.398;9.646;2022-12-18T02:47:18;102260.13;;;-7.51;100.00
8160;BME280;27404;52.398;9.646;2022-12-18T02:49:52;102263.25;;;-7.60;100.00
8160;BME280;27404;52.398;9.646;2022-12-18T02:55:13;102267.47;;;-7.56;100.00
8160;BME280;27404;52.398;9.646;2022-12-18T02:57:55;102261.16;;;-7.53;100.00
8160;BME280;27404;52.398;9.646;2022-12-18T03:00:26;102265.09;;;-7.43;100.00
8160;BME280;27404;52.398;9.646;2022-12-18T03:03:09;102262.44;;;-7.43;100.00
8160;BME280;27404;52.398;9.646;2022-12-18T03:05:54;102257.03;;;-7.41;100.00
8160;BME280;27404;52.398;9.646;2022-12-18T03:08:25;102260.25;;;-7.35;100.00
8160;BME280;27404;52.398;9.646;2022-12-18T03:11:05;102258.13;;;-7.46;100.00
8160;BME280;27404;52.398;9.646;2022-12-18T03:14:04;102254.69;;;-7.30;100.00
8160;BME280;27404;52.398;9.646;2022-12-18T03:16:33;102261.25;;;-7.37;100.00
8160;BME280;27404;52.398;9.646;2022-12-18T03:19:21;102252.34;;;-7.36;100.00
8160;BME280;27404;52.398;9.646;2022-12-18T03:21:52;102250.47;;;-7.34;100.00
8160;BME280;27404;52.398;9.646;2022-12-18T03:24:20;102242.97;;;-7.44;100.00
8160;BME280;27404;52.398;9.646;2022-12-18T03:26:52;102247.47;;;-7.46;100.00
8160;BME280;27404;52.398;9.646;2022-12-18T03:29:25;102238.53;;;-7.43;100.00
8160;BME280;27404;52.398;9.646;2022-12-18T03:31:58;102241.25;;;-7.45;100.00
8160;BME280;27404;52.398;9.646;2022-12-18T03:34:30;102244.78;;;-7.44;100.00
8160;BME280;27404;52.398;9.646;2022-12-18T03:36:56;102250.38;;;-7.50;100.00
8160;BME280;27404;52.398;9.646;2022-12-18T03:39:23;102266.38;;;-7.52;100.00
8160;BME280;27404;52.398;9.646;2022-12-18T03:41:53;102264.06;;;-7.40;100.00
8160;BME280;27404;52.398;9.646;2022-12-18T03:44:29;102262.41;;;-7.25;100.00
8160;BME280;27404;52.398;9.646;2022-12-18T03:47:25;102263.19;;;-7.23;100.00
8160;BME280;27404;52.398;9.646;2022-12-18T03:50:15;102260.94;;;-7.31;100.00
8160;BME280;27404;52.398;9.646;2022-12-18T03:55:12;102267.03;;;-7.47;100.00
8160;BME280;27404;52.398;9.646;2022-12-18T03:57:38;102265.44;;;-7.51;100.00
8160;BME280;27404;52.398;9.646;2022-12-18T04:00:11;102273.34;;;-7.49;100.00
8160;BME280;27404;52.398;9.646;2022-12-18T04:02:39;102264.66;;;-7.53;100.00
8160;BME280;27404;52.398;9.646;2022-12-18T04:05:07;102268.25;;;-7.54;100.00
8160;BME280;27404;52.398;9.646;2022-12-18T04:07:34;102274.50;;;-7.55;100.00
8160;BME280;27404;52.398;9.646;2022-12-18T04:10:01;102270.69;;;-7.49;100.00
8160;BME280;27404;52.398;9.646;2022-12-18T04:12:29;102268.66;;;-7.62;100.00
8160;BME280;27404;52.398;9.646;2022-12-18T04:14:55;102278.00;;;-7.72;100.00
8160;BME280;27404;52.398;9.646;2022-12-18T04:17:21;102275.44;;;-7.74;100.00
8160;BME280;27404;52.398;9.646;2022-12-18T04:19:47;102275.28;;;-7.70;100.00
8160;BME280;27404;52.398;9.646;2022-12-18T04:22:12;102276.00;;;-7.67;100.00
8160;BME280;27404;52.398;9.646;2022-12-18T04:24:38;102274.13;;;-7.65;100.00
8160;BME280;27404;52.398;9.646;2022-12-18T04:27:04;102268.41;;;-7.75;100.00
8160;BME280;27404;52.398;9.646;2022-12-18T04:29:29;102269.50;;;-7.79;100.00
8160;BME280;27404;52.398;9.646;2022-12-18T04:31:55;102270.97;;;-7.73;100.00
8160;BME280;27404;52.398;9.646;2022-12-18T04:34:21;102274.47;;;-7.90;100.00
8160;BME280;27404;52.398;9.646;2022-12-18T04:36:46;102275.63;;;-7.96;100.00
8160;BME280;27404;52.398;9.646;2022-12-18T04:39:12;102273.91;;;-7.97;100.00
8160;BME280;27404;52.398;9.646;2022-12-18T04:41:37;102271.59;;;-8.05;100.00
8160;BME280;27404;52.398;9.646;2022-12-18T04:44:04;102262.56;;;-8.00;100.00
8160;BME280;27404;52.398;9.646;2022-12-18T04:46:29;102267.78;;;-7.80;100.00
8160;BME280;27404;52.398;9.646;2022-12-18T04:48:55;102258.38;;;-7.87;100.00
8160;BME280;27404;52.398;9.646;2022-12-18T04:51:20;102271.66;;;-7.87;100.00
8160;BME280;27404;52.398;9.646;2022-12-18T04:53:46;102271.72;;;-7.89;100.00
8160;BME280;27404;52.398;9.646;2022-12-18T04:56:13;102263.69;;;-7.87;100.00
8160;BME280;27404;52.398;9.646;2022-12-18T04:58:41;102258.00;;;-7.97;100.00
8160;BME280;27404;52.398;9.646;2022-12-18T05:01:08;102257.41;;;-8.04;100.00
8160;BME280;27404;52.398;9.646;2022-12-18T05:03:34;102257.22;;;-7.81;100.00
8160;BME280;27404;52.398;9.646;2022-12-18T05:06:00;102251.91;;;-7.81;100.00
8160;BME280;27404;52.398;9.646;2022-12-18T05:08:25;102263.69;;;-7.87;100.00
8160;BME280;27404;52.398;9.646;2022-12-18T05:11:08;102261.34;;;-7.93;100.00
8160;BME280;27404;52.398;9.646;2022-12-18T05:13:34;102277.50;;;-7.98;100.00
8160;BME280;27404;52.398;9.646;2022-12-18T05:16:00;102274.50;;;-8.09;100.00
8160;BME280;27404;52.398;9.646;2022-12-18T05:18:26;102281.88;;;-8.16;100.00
8160;BME280;27404;52.398;9.646;2022-12-18T05:20:52;102287.91;;;-8.12;100.00
8160;BME280;27404;52.398;9.646;2022-12-18T05:23:18;102280.59;;;-8.07;100.00
8160;BME280;27404;52.398;9.646;2022-12-18T05:25:54;102286.97;;;-8.11;100.00
8160;BME280;27404;52.398;9.646;2022-12-18T05:28:20;102279.16;;;-8.14;100.00
8160;BME280;27404;52.398;9.646;2022-12-18T05:30:55;102283.00;;;-8.03;100.00
8160;BME280;27404;52.398;9.646;2022-12-18T05:33:22;102287.97;;;-8.14;100.00
8160;BME280;27404;52.398;9.646;2022-12-18T05:35:52;102284.53;;;-8.35;100.00
8160;BME280;27404;52.398;9.646;2022-12-18T05:38:19;102291.63;;;-8.16;100.00
8160;BME280;27404;52.398;9.646;2022-12-18T05:40:45;102295.09;;;-8.14;100.00
8160;BME280;27404;52.398;9.646;2022-12-18T05:43:11;102296.72;;;-8.12;100.00
8160;BME280;27404;52.398;9.646;2022-12-18T05:45:39;102294.16;;;-8.13;100.00
8160;BME280;27404;52.398;9.646;2022-12-18T05:48:06;102298.66;;;-8.15;100.00
8160;BME280;27404;52.398;9.646;2022-12-18T05:50:35;102290.28;;;-8.06;100.00
8160;BME280;27404;52.398;9.646;2022-12-18T05:53:01;102299.31;;;-8.10;100.00
8160;BME280;27404;52.398;9.646;2022-12-18T05:55:27;102299.16;;;-8.26;100.00
8160;BME280;27404;52.398;9.646;2022-12-18T05:57:52;102298.94;;;-8.41;100.00
8160;BME280;27404;52.398;9.646;2022-12-18T06:00:18;102298.59;;;-8.52;100.00
8160;BME280;27404;52.398;9.646;2022-12-18T06:02:46;102303.69;;;-8.28;100.00
8160;BME280;27404;52.398;9.646;2022-12-18T06:05:12;102299.94;;;-8.24;100.00
8160;BME280;27404;52.398;9.646;2022-12-18T06:07:37;102302.41;;;-8.20;100.00
8160;BME280;27404;52.398;9.646;2022-12-18T06:10:03;102303.88;;;-8.14;100.00
8160;BME280;27404;52.398;9.646;2022-12-18T06:12:28;102307.25;;;-7.91;100.00
8160;BME280;27404;52.398;9.646;2022-12-18T06:14:54;102297.59;;;-8.11;100.00
8160;BME280;27404;52.398;9.646;2022-12-18T06:17:19;102295.13;;;-8.16;100.00
8160;BME280;27404;52.398;9.646;2022-12-18T06:19:45;102297.72;;;-8.14;100.00
8160;BME280;27404;52.398;9.646;2022-12-18T06:22:10;102300.16;;;-8.10;100.00
8160;BME280;27404;52.398;9.646;2022-12-18T06:24:36;102313.94;;;-8.01;100.00
8160;BME280;27404;52.398;9.646;2022-12-18T06:27:01;102310.47;;;-7.84;100.00
8160;BME280;27404;52.398;9.646;2022-12-18T06:29:27;102310.91;;;-7.75;100.00
8160;BME280;27404;52.398;9.646;2022-12-18T06:31:52;102306.16;;;-7.87;100.00
8160;BME280;27404;52.398;9.646;2022-12-18T06:34:18;102306.69;;;-7.98;100.00
8160;BME280;27404;52.398;9.646;2022-12-18T06:36:43;102301.84;;;-7.90;100.00
8160;BME280;27404;52.398;9.646;2022-12-18T06:39:09;102311.81;;;-7.76;100.00
8160;BME280;27404;52.398;9.646;2022-12-18T06:41:34;102306.81;;;-7.82;100.00
8160;BME280;27404;52.398;9.646;2022-12-18T06:43:59;102312.19;;;-7.83;100.00
8160;BME280;27404;52.398;9.646;2022-12-18T06:46:25;102325.28;;;-7.98;100.00
8160;BME280;27404;52.398;9.646;2022-12-18T06:48:51;102320.53;;;-7.91;100.00
8160;BME280;27404;52.398;9.646;2022-12-18T06:51:18;102326.69;;;-7.91;100.00
8160;BME280;27404;52.398;9.646;2022-12-18T06:53:43;102313.28;;;-8.07;100.00
8160;BME280;27404;52.398;9.646;2022-12-18T06:56:09;102322.75;;;-8.01;100.00
8160;BME280;27404;52.398;9.646;2022-12-18T06:58:34;102320.69;;;-8.13;100.00
8160;BME280;27404;52.398;9.646;2022-12-18T07:01:01;102327.47;;;-8.27;100.00
8160;BME280;27404;52.398;9.646;2022-12-18T07:03:27;102324.81;;;-8.08;100.00
8160;BME280;27404;52.398;9.646;2022-12-18T07:05:52;102326.06;;;-7.96;100.00
8160;BME280;27404;52.398;9.646;2022-12-18T07:08:18;102334.28;;;-7.83;100.00
8160;BME280;27404;52.398;9.646;2022-12-18T07:10:43;102336.72;;;-7.78;100.00
8160;BME280;27404;52.398;9.646;2022-12-18T07:13:09;102326.75;;;-7.73;100.00
8160;BME280;27404;52.398;9.646;2022-12-18T07:15:34;102330.91;;;-7.67;100.00
8160;BME280;27404;52.398;9.646;2022-12-18T07:18:00;102340.84;;;-7.53;100.00
8160;BME280;27404;52.398;9.646;2022-12-18T07:20:25;102347.38;;;-7.61;100.00
8160;BME280;27404;52.398;9.646;2022-12-18T07:22:50;102351.13;;;-7.65;100.00
8160;BME280;27404;52.398;9.646;2022-12-18T07:25:16;102357.94;;;-7.59;100.00
8160;BME280;27404;52.398;9.646;2022-12-18T07:27:41;102349.75;;;-7.54;100.00
8160;BME280;27404;52.398;9.646;2022-12-18T07:30:07;102356.53;;;-7.66;100.00
8160;BME280;27404;52.398;9.646;2022-12-18T07:32:33;102352.34;;;-7.72;100.00
8160;BME280;27404;52.398;9.646;2022-12-18T07:34:59;102356.06;;;-7.57;100.00
8160;BME280;27404;52.398;9.646;2022-12-18T07:37:25;102366.81;;;-7.60;100.00
8160;BME280;27404;52.398;9.646;2022-12-18T07:39:50;102371.28;;;-7.61;100.00
8160;BME280;27404;52.398;9.646;2022-12-18T07:42:16;102376.59;;;-7.61;100.00
8160;BME280;27404;52.398;9.646;2022-12-18T07:44:58;102379.03;;;-7.56;100.00
8160;BME280;27404;52.398;9.646;2022-12-18T07:47:23;102364.91;;;-7.56;100.00
8160;BME280;27404;52.398;9.646;2022-12-18T07:49:49;102369.03;;;-7.51;100.00
8160;BME280;27404;52.398;9.646;2022-12-18T07:52:14;102366.53;;;-7.35;100.00
8160;BME280;27404;52.398;9.646;2022-12-18T07:54:40;102370.41;;;-7.24;100.00
8160;BME280;27404;52.398;9.646;2022-12-18T07:57:06;102367.59;;;-7.21;100.00
8160;BME280;27404;52.398;9.646;2022-12-18T07:59:32;102356.81;;;-7.18;100.00
8160;BME280;27404;52.398;9.646;2022-12-18T08:01:57;102348.84;;;-7.18;100.00
8160;BME280;27404;52.398;9.646;2022-12-18T08:04:24;102347.91;;;-7.17;100.00
8160;BME280;27404;52.398;9.646;2022-12-18T08:06:49;102351.75;;;-7.23;100.00
8160;BME280;27404;52.398;9.646;2022-12-18T08:09:15;102347.28;;;-7.22;100.00
8160;BME280;27404;52.398;9.646;2022-12-18T08:11:40;102337.69;;;-7.25;100.00
8160;BME280;27404;52.398;9.646;2022-12-18T08:14:06;102350.34;;;-7.12;100.00
8160;BME280;27404;52.398;9.646;2022-12-18T08:16:31;102353.66;;;-7.07;100.00
8160;BME280;27404;52.398;9.646;2022-12-18T08:18:57;102341.25;;;-6.91;100.00
8160;BME280;27404;52.398;9.646;2022-12-18T08:21:25;102342.75;;;-6.85;100.00
8160;BME280;27404;52.398;9.646;2022-12-18T08:23:52;102341.34;;;-6.92;100.00
8160;BME280;27404;52.398;9.646;2022-12-18T08:26:18;102338.84;;;-6.95;100.00
8160;BME280;27404;52.398;9.646;2022-12-18T08:28:44;102334.00;;;-7.05;100.00
8160;BME280;27404;52.398;9.646;2022-12-18T08:31:09;102329.41;;;-7.01;100.00
8160;BME280;27404;52.398;9.646;2022-12-18T08:33:36;102329.63;;;-6.88;100.00
8160;BME280;27404;52.398;9.646;2022-12-18T08:36:03;102325.31;;;-6.91;100.00
8160;BME280;27404;52.398;9.646;2022-12-18T08:38:29;102332.34;;;-6.72;100.00
8160;BME280;27404;52.398;9.646;2022-12-18T08:41:04;102318.81;;;-6.67;100.00
8160;BME280;27404;52.398;9.646;2022-12-18T08:43:30;102318.72;;;-6.66;100.00
8160;BME280;27404;52.398;9.646;2022-12-18T08:46:14;102321.13;;;-6.61;100.00
8160;BME280;27404;52.398;9.646;2022-12-18T08:48:40;102322.94;;;-6.62;100.00
8160;BME280;27404;52.398;9.646;2022-12-18T08:51:05;102321.97;;;-6.43;100.00
8160;BME280;27404;52.398;9.646;2022-12-18T08:53:31;102326.34;;;-6.42;100.00
8160;BME280;27404;52.398;9.646;2022-12-18T08:55:57;102322.81;;;-6.43;100.00
8160;BME280;27404;52.398;9.646;2022-12-18T08:58:23;102327.91;;;-6.38;100.00
8160;BME280;27404;52.398;9.646;2022-12-18T09:00:48;102325.44;;;-6.25;100.00
8160;BME280;27404;52.398;9.646;2022-12-18T09:03:18;102322.94;;;-6.12;100.00
8160;BME280;27404;52.398;9.646;2022-12-18T09:05:45;102322.53;;;-6.04;100.00
8160;BME280;27404;52.398;9.646;2022-12-18T09:08:12;102322.88;;;-6.11;100.00
8160;BME280;27404;52.398;9.646;2022-12-18T09:10:48;102320.28;;;-6.12;100.00
8160;BME280;27404;52.398;9.646;2022-12-18T09:13:15;102312.56;;;-6.01;100.00
8160;BME280;27404;52.398;9.646;2022-12-18T09:15:49;102315.44;;;-5.73;100.00
8160;BME280;27404;52.398;9.646;2022-12-18T09:18:16;102299.09;;;-5.67;100.00
8160;BME280;27404;52.398;9.646;2022-12-18T09:20:42;102303.97;;;-5.59;100.00
8160;BME280;27404;52.398;9.646;2022-12-18T09:23:08;102305.59;;;-5.41;100.00
8160;BME280;27404;52.398;9.646;2022-12-18T09:25:35;102295.63;;;-5.23;100.00
8160;BME280;27404;52.398;9.646;2022-12-18T09:28:06;102297.75;;;-5.13;100.00
8160;BME280;27404;52.398;9.646;2022-12-18T09:30:32;102297.91;;;-5.00;100.00
8160;BME280;27404;52.398;9.646;2022-12-18T09:32:59;102300.19;;;-4.94;100.00
8160;BME280;27404;52.398;9.646;2022-12-18T09:35:25;102297.06;;;-4.86;100.00
8160;BME280;27404;52.398;9.646;2022-12-18T09:37:51;102307.44;;;-4.82;100.00
8160;BME280;27404;52.398;9.646;2022-12-18T09:40:20;102306.69;;;-4.69;100.00
8160;BME280;27404;52.398;9.646;2022-12-18T09:42:50;102307.84;;;-4.73;100.00
8160;BME280;27404;52.398;9.646;2022-12-18T09:45:17;102310.13;;;-4.67;100.00
8160;BME280;27404;52.398;9.646;2022-12-18T09:47:45;102318.03;;;-4.51;100.00
8160;BME280;27404;52.398;9.646;2022-12-18T09:50:34;102324.66;;;-4.42;100.00
8160;BME280;27404;52.398;9.646;2022-12-18T09:53:05;102330.19;;;-4.31;100.00
8160;BME280;27404;52.398;9.646;2022-12-18T09:55:43;102335.47;;;-4.17;100.00
8160;BME280;27404;52.398;9.646;2022-12-18T10:00:35;102329.53;;;-3.93;100.00
8160;BME280;27404;52.398;9.646;2022-12-18T10:03:09;102325.69;;;-3.74;100.00
8160;BME280;27404;52.398;9.646;2022-12-18T10:05:43;102324.34;;;-3.67;100.00
8160;BME280;27404;52.398;9.646;2022-12-18T10:08:26;102332.25;;;-3.65;100.00
8160;BME280;27404;52.398;9.646;2022-12-18T10:13:46;102330.13;;;-3.60;100.00
8160;BME280;27404;52.398;9.646;2022-12-18T10:16:45;102337.56;;;-3.51;100.00
8160;BME280;27404;52.398;9.646;2022-12-18T10:19:23;102328.56;;;-3.22;100.00
8160;BME280;27404;52.398;9.646;2022-12-18T10:27:44;102328.84;;;-2.74;100.00
8160;BME280;27404;52.398;9.646;2022-12-18T10:30:19;102319.53;;;-2.68;100.00
8160;BME280;27404;52.398;9.646;2022-12-18T10:32:45;102316.09;;;-2.57;100.00
8160;BME280;27404;52.398;9.646;2022-12-18T10:35:19;102324.03;;;-2.81;100.00
8160;BME280;27404;52.398;9.646;2022-12-18T10:43:32;102323.38;;;-2.46;100.00
8160;BME280;27404;52.398;9.646;2022-12-18T10:48:36;102313.63;;;-2.34;100.00
8160;BME280;27404;52.398;9.646;2022-12-18T10:51:06;102305.59;;;-2.34;100.00
8160;BME280;27404;52.398;9.646;2022-12-18T10:53:34;102309.44;;;-2.26;100.00
8160;BME280;27404;52.398;9.646;2022-12-18T10:56:00;102304.28;;;-2.29;100.00
8160;BME280;27404;52.398;9.646;2022-12-18T10:58:37;102298.28;;;-2.19;100.00
8160;BME280;27404;52.398;9.646;2022-12-18T11:01:08;102294.94;;;-2.23;100.00
8160;BME280;27404;52.398;9.646;2022-12-18T11:03:42;102285.41;;;-2.14;100.00
8160;BME280;27404;52.398;9.646;2022-12-18T11:06:11;102269.66;;;-2.19;100.00
8160;BME280;27404;52.398;9.646;2022-12-18T11:08:38;102257.00;;;-2.17;100.00
8160;BME280;27404;52.398;9.646;2022-12-18T11:11:07;102270.91;;;-2.12;100.00
8160;BME280;27404;52.398;9.646;2022-12-18T11:13:40;102285.66;;;-1.93;100.00
8160;BME280;27404;52.398;9.646;2022-12-18T11:16:05;102283.78;;;-1.80;100.00
8160;BME280;27404;52.398;9.646;2022-12-18T11:18:35;102280.75;;;-1.75;100.00
8160;BME280;27404;52.398;9.646;2022-12-18T11:21:11;102280.97;;;-1.78;100.00
8160;BME280;27404;52.398;9.646;2022-12-18T11:23:52;102283.56;;;-1.76;100.00
8160;BME280;27404;52.398;9.646;2022-12-18T11:26:19;102279.91;;;-1.75;100.00
8160;BME280;27404;52.398;9.646;2022-12-18T11:28:54;102284.63;;;-1.79;100.00
8160;BME280;27404;52.398;9.646;2022-12-18T11:31:32;102283.22;;;-1.72;100.00
8160;BME280;27404;52.398;9.646;2022-12-18T11:34:10;102278.13;;;-1.64;100.00
8160;BME280;27404;52.398;9.646;2022-12-18T11:36:42;102276.34;;;-1.52;100.00
8160;BME280;27404;52.398;9.646;2022-12-18T11:41:59;102263.03;;;-1.65;100.00
8160;BME280;27404;52.398;9.646;2022-12-18T11:47:37;102245.69;;;-1.72;100.00
8160;BME280;27404;52.398;9.646;2022-12-18T11:50:12;102239.25;;;-1.69;100.00
8160;BME280;27404;52.398;9.646;2022-12-18T11:52:40;102233.28;;;-1.61;100.00
8160;BME280;27404;52.398;9.646;2022-12-18T12:00:58;102208.38;;;-1.75;100.00
8160;BME280;27404;52.398;9.646;2022-12-18T12:17:35;102188.00;;;-2.26;100.00
8160;BME280;27404;52.398;9.646;2022-12-18T12:20:47;102185.69;;;-2.31;100.00
8160;BME280;27404;52.398;9.646;2022-12-18T12:26:07;102180.38;;;-2.44;100.00
8160;BME280;27404;52.398;9.646;2022-12-18T12:28:51;102182.94;;;-2.42;100.00
8160;BME280;27404;52.398;9.646;2022-12-18T12:39:18;102161.81;;;-2.34;100.00
8160;BME280;27404;52.398;9.646;2022-12-18T12:41:46;102163.06;;;-2.27;100.00
8160;BME280;27404;52.398;9.646;2022-12-18T12:44:35;102165.22;;;-2.32;100.00
8160;BME280;27404;52.398;9.646;2022-12-18T12:47:14;102148.19;;;-2.31;100.00
8160;BME280;27404;52.398;9.646;2022-12-18T12:49:41;102146.53;;;-2.20;100.00
8160;BME280;27404;52.398;9.646;2022-12-18T12:52:20;102144.81;;;-2.21;100.00
8160;BME280;27404;52.398;9.646;2022-12-18T12:54:49;102137.41;;;-2.18;100.00
8160;BME280;27404;52.398;9.646;2022-12-18T12:57:32;102144.16;;;-2.12;100.00
8160;BME280;27404;52.398;9.646;2022-12-18T13:00:14;102155.41;;;-2.20;100.00
8160;BME280;27404;52.398;9.646;2022-12-18T13:02:52;102149.00;;;-2.17;100.00
8160;BME280;27404;52.398;9.646;2022-12-18T13:05:29;102139.97;;;-2.16;100.00
8160;BME280;27404;52.398;9.646;2022-12-18T13:08:06;102117.97;;;-2.09;100.00
8160;BME280;27404;52.398;9.646;2022-12-18T13:10:37;102110.66;;;-2.06;100.00
8160;BME280;27404;52.398;9.646;2022-12-18T13:13:08;102117.00;;;-2.08;100.00
8160;BME280;27404;52.398;9.646;2022-12-18T13:18:27;102138.94;;;-2.02;100.00
8160;BME280;27404;52.398;9.646;2022-12-18T13:25:51;102156.06;;;-2.16;100.00
8160;BME280;27404;52.398;9.646;2022-12-18T13:28:20;102155.41;;;-2.20;100.00
8160;BME280;27404;52.398;9.646;2022-12-18T13:30:55;102147.59;;;-2.23;100.00
8160;BME280;27404;52.398;9.646;2022-12-18T13:33:41;102137.25;;;-2.28;100.00
8160;BME280;27404;52.398;9.646;2022-12-18T13:38:43;102137.53;;;-2.19;100.00
8160;BME280;27404;52.398;9.646;2022-12-18T13:43:46;102147.16;;;-2.17;100.00
8160;BME280;27404;52.398;9.646;2022-12-18T13:49:02;102131.25;;;-2.07;100.00
8160;BME280;27404;52.398;9.646;2022-12-18T13:51:31;102123.22;;;-2.07;100.00
8160;BME280;27404;52.398;9.646;2022-12-18T13:54:00;102116.66;;;-2.03;100.00
8160;BME280;27404;52.398;9.646;2022-12-18T13:56:32;102113.69;;;-2.11;100.00
8160;BME280;27404;52.398;9.646;2022-12-18T14:01:46;102108.38;;;-2.24;100.00
8160;BME280;27404;52.398;9.646;2022-12-18T14:04:19;102106.91;;;-2.28;100.00
8160;BME280;27404;52.398;9.646;2022-12-18T14:06:46;102117.59;;;-2.40;100.00
8160;BME280;27404;52.398;9.646;2022-12-18T14:09:23;102113.88;;;-2.50;100.00
8160;BME280;27404;52.398;9.646;2022-12-18T14:11:50;102102.44;;;-2.52;100.00
8160;BME280;27404;52.398;9.646;2022-12-18T14:14:17;102100.72;;;-2.53;100.00
8160;BME280;27404;52.398;9.646;2022-12-18T14:16:43;102088.22;;;-2.65;100.00
8160;BME280;27404;52.398;9.646;2022-12-18T14:19:16;102082.03;;;-2.66;100.00
8160;BME280;27404;52.398;9.646;2022-12-18T14:21:47;102078.94;;;-2.73;100.00
8160;BME280;27404;52.398;9.646;2022-12-18T14:24:20;102077.16;;;-2.85;100.00
8160;BME280;27404;52.398;9.646;2022-12-18T14:26:49;102075.78;;;-2.91;100.00
8160;BME280;27404;52.398;9.646;2022-12-18T14:29:20;102070.53;;;-2.92;100.00
8160;BME280;27404;52.398;9.646;2022-12-18T14:31:46;102065.75;;;-3.00;100.00
8160;BME280;27404;52.398;9.646;2022-12-18T14:34:28;102062.97;;;-3.12;100.00
8160;BME280;27404;52.398;9.646;2022-12-18T14:36:54;102064.47;;;-3.07;100.00